Koroba Airport


Codes: AYOW/KDE
Name: Koroba Airport
City: Koroba
Country: Papua New Guinea
Elevation: 5638 ft.

Photos at Koroba Airport


   Photos courtesy of SpottingLog. You can add your own sightings and photos by signing up for a free trial today.



No photos found.

Weather at Koroba Airport


Time (UTC)DescriptionTempratureWindCloud coverageVisibilityPressureHumidity
19-Apr-2024 03:00Overcast Clouds25°C9 mph, NW100%10000m1010hPa51%
19-Apr-2024 06:00Overcast Clouds25°C7 mph, NW100%10000m1009hPa52%
19-Apr-2024 09:00Light Rain19°C2 mph, NW79%10000m1012hPa81%
19-Apr-2024 12:00Broken Clouds15°C2 mph, NW71%10000m1016hPa99%
19-Apr-2024 15:00Overcast Clouds14°C2 mph, NW96%10000m1015hPa98%
19-Apr-2024 18:00Overcast Clouds14°C2 mph, NW91%10000m1015hPa98%
19-Apr-2024 21:00Overcast Clouds15°C2 mph, NW100%10000m1017hPa96%
20-Apr-2024 00:00Overcast Clouds22°C2 mph, N100%10000m1015hPa62%
20-Apr-2024 03:00Overcast Clouds26°C4 mph, N93%10000m1010hPa40%
20-Apr-2024 06:00Light Rain24°C0 mph, SE73%10000m1009hPa55%
20-Apr-2024 09:00Light Rain17°C2 mph, S91%10000m1014hPa96%
20-Apr-2024 12:00Broken Clouds16°C2 mph, NW67%10000m1016hPa99%
20-Apr-2024 15:00Overcast Clouds15°C4 mph, NW97%10000m1016hPa99%
20-Apr-2024 18:00Broken Clouds14°C2 mph, NW67%10000m1015hPa98%
20-Apr-2024 21:00Broken Clouds14°C2 mph, NW82%10000m1016hPa96%
21-Apr-2024 00:00Broken Clouds23°C2 mph, N78%10000m1014hPa56%
21-Apr-2024 03:00Few Clouds27°C2 mph, N18%10000m1009hPa43%
21-Apr-2024 06:00Light Rain22°C0 mph, SE49%10000m1009hPa75%
21-Apr-2024 09:00Light Rain17°C2 mph, SW86%10000m1013hPa97%
21-Apr-2024 12:00Light Rain16°C2 mph, NW93%7790m1016hPa99%
21-Apr-2024 15:00Overcast Clouds16°C4 mph, NW100%10000m1014hPa99%
21-Apr-2024 18:00Light Rain15°C4 mph, NW98%10000m1014hPa99%
21-Apr-2024 21:00Overcast Clouds15°C2 mph, NW98%10000m1015hPa98%
22-Apr-2024 00:00Overcast Clouds22°C2 mph, N93%10000m1014hPa69%
22-Apr-2024 03:00Light Rain23°C2 mph, N80%10000m1010hPa68%
22-Apr-2024 06:00Light Rain20°C2 mph, N87%8881m1010hPa91%
22-Apr-2024 09:00Light Rain17°C2 mph, NW88%10000m1013hPa98%
22-Apr-2024 12:00Light Rain17°C2 mph, NW93%7633m1015hPa99%
22-Apr-2024 15:00Light Rain17°C2 mph, NW100%2390m1014hPa99%
22-Apr-2024 18:00Light Rain16°C2 mph, NW100%486m1013hPa99%
22-Apr-2024 21:00Light Rain16°C2 mph, NW97%10000m1015hPa99%
23-Apr-2024 00:00Light Rain20°C2 mph, N92%10000m1014hPa89%
23-Apr-2024 03:00Moderate Rain22°C2 mph, N68%4875m1011hPa85%
23-Apr-2024 06:00Moderate Rain21°C2 mph, NW78%6904m1010hPa93%
23-Apr-2024 09:00Moderate Rain17°C2 mph, W85%8817m1013hPa99%
23-Apr-2024 12:00Moderate Rain16°C2 mph, NW92%10000m1016hPa99%
23-Apr-2024 15:00Light Rain16°C2 mph, NW100%10000m1015hPa99%
23-Apr-2024 18:00Light Rain16°C2 mph, NW100%4204m1014hPa99%
23-Apr-2024 21:00Overcast Clouds15°C2 mph, NW89%10000m1016hPa99%
24-Apr-2024 00:00Overcast Clouds22°C2 mph, N95%10000m1014hPa68%